createdAt,value
2018-11-10T00:00:09.677Z,99.90
2018-11-10T00:00:42.776Z,99.90
2018-11-10T00:01:15.489Z,99.90
2018-11-10T00:01:48.097Z,99.90
2018-11-10T00:02:20.742Z,99.90
2018-11-10T00:02:53.720Z,99.90
2018-11-10T00:03:26.344Z,99.90
2018-11-10T00:03:59.152Z,99.90
2018-11-10T00:04:31.852Z,99.90
2018-11-10T00:05:05.179Z,99.90
2018-11-10T00:05:37.825Z,99.90
2018-11-10T00:06:10.546Z,99.90
2018-11-10T00:06:43.122Z,99.90
2018-11-10T00:07:16.039Z,99.90
2018-11-10T00:07:48.642Z,99.90
2018-11-10T00:08:21.489Z,99.90
2018-11-10T00:08:54.138Z,99.90
2018-11-10T00:09:26.861Z,99.90
2018-11-10T00:09:59.622Z,99.90
2018-11-10T00:10:32.321Z,99.90
2018-11-10T00:11:05.136Z,99.90
2018-11-10T00:11:37.868Z,99.90
2018-11-10T00:12:10.496Z,99.90
2018-11-10T00:12:43.345Z,99.90
2018-11-10T00:13:15.999Z,99.90
2018-11-10T00:13:48.595Z,99.90
2018-11-10T00:14:21.279Z,99.90
2018-11-10T00:14:53.962Z,99.90
2018-11-10T00:15:26.717Z,99.90
2018-11-10T00:15:59.335Z,99.90
2018-11-10T00:16:32.035Z,99.90
2018-11-10T00:17:05.430Z,99.90
2018-11-10T00:17:38.046Z,99.90
2018-11-10T00:18:10.688Z,99.90
2018-11-10T00:18:43.278Z,99.90
2018-11-10T00:19:15.874Z,99.90
2018-11-10T00:19:48.557Z,99.90
2018-11-10T00:20:21.187Z,99.90
2018-11-10T00:20:53.825Z,99.90
2018-11-10T00:21:26.556Z,99.90
2018-11-10T00:21:59.161Z,99.90
2018-11-10T00:22:31.831Z,99.90
2018-11-10T00:23:04.528Z,99.90
2018-11-10T00:23:37.218Z,99.90
2018-11-10T00:24:09.889Z,99.90
2018-11-10T00:24:42.618Z,99.90
2018-11-10T00:25:15.653Z,99.90
2018-11-10T00:25:48.285Z,99.90
2018-11-10T00:26:21.004Z,99.90
2018-11-10T00:26:53.698Z,99.90
2018-11-10T00:27:26.410Z,99.90
2018-11-10T00:27:59.019Z,99.90
2018-11-10T00:28:31.680Z,99.90
2018-11-10T00:29:04.469Z,99.90
2018-11-10T00:29:37.191Z,99.90
2018-11-10T00:30:12.278Z,99.90
2018-11-10T00:30:44.969Z,99.90
2018-11-10T00:31:17.627Z,99.90
2018-11-10T00:31:50.227Z,99.90
2018-11-10T00:32:22.869Z,99.90
2018-11-10T00:32:55.496Z,99.90
2018-11-10T00:33:28.176Z,99.90
2018-11-10T00:34:00.880Z,99.90
2018-11-10T00:34:33.503Z,99.90
2018-11-10T00:35:06.328Z,99.90
2018-11-10T00:35:39.031Z,99.90
2018-11-10T00:36:11.799Z,99.90
2018-11-10T00:36:44.946Z,99.90
2018-11-10T00:37:17.547Z,99.90
2018-11-10T00:37:50.155Z,99.90
2018-11-10T00:38:22.775Z,99.90
2018-11-10T00:38:59.111Z,99.90
2018-11-10T00:39:31.748Z,99.90
2018-11-10T00:40:05.299Z,99.90
2018-11-10T00:40:37.900Z,99.90
2018-11-10T00:41:10.525Z,99.90
2018-11-10T00:41:43.191Z,99.90
2018-11-10T00:42:15.848Z,99.90
2018-11-10T00:42:48.478Z,99.90
2018-11-10T00:43:22.730Z,99.90
2018-11-10T00:43:55.374Z,99.90
2018-11-10T00:44:27.997Z,99.90
2018-11-10T00:45:00.628Z,99.90
2018-11-10T00:45:33.246Z,99.90
2018-11-10T00:46:05.919Z,99.90
2018-11-10T00:46:38.570Z,99.90
2018-11-10T00:47:11.245Z,99.90
2018-11-10T00:47:43.894Z,99.90
2018-11-10T00:48:16.526Z,99.90
2018-11-10T00:48:49.200Z,99.90
2018-11-10T00:49:21.853Z,99.90
2018-11-10T00:49:54.475Z,99.90
2018-11-10T00:50:27.083Z,99.90
2018-11-10T00:50:59.720Z,99.90
2018-11-10T00:51:32.335Z,99.90
2018-11-10T00:52:05.003Z,99.90
2018-11-10T00:52:37.957Z,99.90
2018-11-10T00:53:10.610Z,99.90
2018-11-10T00:53:43.280Z,99.90
2018-11-10T00:54:15.994Z,99.90
2018-11-10T00:54:48.632Z,99.90
2018-11-10T00:55:21.327Z,99.90
2018-11-10T00:55:53.970Z,99.90
2018-11-10T00:56:26.863Z,99.90
2018-11-10T00:56:59.523Z,99.90
2018-11-10T00:57:32.250Z,99.90
2018-11-10T00:58:05.007Z,99.90
2018-11-10T00:58:37.620Z,99.90
2018-11-10T00:59:10.439Z,99.90
2018-11-10T00:59:43.120Z,99.90
2018-11-10T01:00:15.785Z,99.90
2018-11-10T01:00:48.439Z,99.90
2018-11-10T01:01:21.106Z,99.90
2018-11-10T01:01:54.465Z,99.90
2018-11-10T01:02:27.095Z,99.90
2018-11-10T01:02:59.714Z,99.90
2018-11-10T01:03:32.327Z,99.90
2018-11-10T01:04:05.317Z,99.90
2018-11-10T01:04:37.960Z,99.90
2018-11-10T01:05:10.634Z,99.90
2018-11-10T01:05:43.242Z,99.90
2018-11-10T01:06:15.830Z,99.90
2018-11-10T01:06:48.427Z,99.90
2018-11-10T01:07:21.042Z,99.90
2018-11-10T01:07:53.627Z,99.90
2018-11-10T01:08:26.218Z,99.90
2018-11-10T01:08:58.799Z,99.90
2018-11-10T01:09:31.425Z,99.90
2018-11-10T01:10:05.184Z,99.90
2018-11-10T01:10:37.835Z,99.90
2018-11-10T01:11:10.438Z,99.80
2018-11-10T01:11:43.052Z,99.80
2018-11-10T01:12:15.632Z,99.70
2018-11-10T01:12:48.269Z,99.70
2018-11-10T01:13:20.904Z,99.60
2018-11-10T01:13:53.556Z,99.60
2018-11-10T01:14:26.138Z,99.60
2018-11-10T01:14:58.797Z,99.40
2018-11-10T01:15:31.389Z,99.20
2018-11-10T01:16:04.206Z,99.20
2018-11-10T01:16:36.795Z,99.40
2018-11-10T01:17:09.421Z,99.40
2018-11-10T01:17:42.547Z,99.60
2018-11-10T01:18:15.175Z,99.90
2018-11-10T01:18:47.846Z,99.60
2018-11-10T01:19:20.440Z,99.70
2018-11-10T01:19:53.083Z,99.80
2018-11-10T01:20:25.706Z,99.80
2018-11-10T01:20:58.370Z,99.90
2018-11-10T01:21:31.019Z,99.90
2018-11-10T01:22:03.720Z,99.80
2018-11-10T01:22:36.329Z,99.90
2018-11-10T01:23:08.959Z,99.90
2018-11-10T01:23:41.608Z,99.90
2018-11-10T01:24:14.262Z,99.90
2018-11-10T01:24:46.871Z,99.90
2018-11-10T01:25:19.470Z,99.90
2018-11-10T01:25:52.072Z,99.90
2018-11-10T01:26:24.667Z,99.90
2018-11-10T01:26:57.276Z,99.90
2018-11-10T01:27:29.927Z,99.90
2018-11-10T01:28:02.619Z,99.90
2018-11-10T01:28:35.146Z,99.90
2018-11-10T01:29:07.775Z,99.90
2018-11-10T01:29:40.391Z,99.90
2018-11-10T01:30:14.358Z,99.90
2018-11-10T01:30:46.934Z,99.90
2018-11-10T01:31:19.527Z,99.90
2018-11-10T01:31:52.119Z,99.90
2018-11-10T01:32:24.817Z,99.90
2018-11-10T01:32:57.437Z,99.90
2018-11-10T01:33:30.020Z,99.90
2018-11-10T01:34:02.650Z,99.90
2018-11-10T01:34:35.251Z,99.90
2018-11-10T01:35:07.988Z,99.90
2018-11-10T01:35:40.600Z,99.90
2018-11-10T01:36:13.206Z,99.90
2018-11-10T01:36:45.884Z,99.90
2018-11-10T01:37:18.520Z,99.90
2018-11-10T01:37:51.136Z,99.90
2018-11-10T01:38:23.730Z,99.90
2018-11-10T01:38:56.370Z,99.90
2018-11-10T01:39:28.973Z,99.90
2018-11-10T01:40:01.579Z,99.90
2018-11-10T01:40:34.200Z,99.90
2018-11-10T01:41:06.879Z,99.90
2018-11-10T01:41:39.679Z,99.90
2018-11-10T01:42:12.259Z,99.90
2018-11-10T01:42:44.886Z,99.90
2018-11-10T01:43:17.538Z,99.90
2018-11-10T01:43:50.142Z,99.90
2018-11-10T01:44:22.746Z,99.90
2018-11-10T01:44:55.383Z,99.90
2018-11-10T01:45:27.953Z,99.90
2018-11-10T01:46:00.544Z,99.90
2018-11-10T01:46:33.146Z,99.90
2018-11-10T01:47:05.758Z,99.90
2018-11-10T01:47:38.368Z,99.90
2018-11-10T01:48:11.003Z,99.90
2018-11-10T01:48:43.642Z,99.90
2018-11-10T01:49:16.230Z,99.90
2018-11-10T01:49:48.854Z,99.90
2018-11-10T01:50:21.457Z,99.90
2018-11-10T01:50:54.058Z,99.90
2018-11-10T01:51:26.656Z,99.90
2018-11-10T01:51:59.226Z,99.90
2018-11-10T01:52:31.811Z,99.90
2018-11-10T01:53:04.447Z,99.90
2018-11-10T01:53:37.029Z,99.90
2018-11-10T01:54:09.672Z,99.90
2018-11-10T01:54:42.291Z,99.90
2018-11-10T01:55:14.961Z,99.90
2018-11-10T01:55:47.546Z,99.90
2018-11-10T01:56:20.135Z,99.90
2018-11-10T01:56:52.707Z,99.90
2018-11-10T01:57:25.322Z,99.90
2018-11-10T01:57:57.914Z,99.90
2018-11-10T01:58:30.541Z,99.90
2018-11-10T01:59:03.186Z,99.90
2018-11-10T01:59:35.863Z,99.90
2018-11-10T02:00:11.969Z,99.90
2018-11-10T02:00:44.555Z,99.90
2018-11-10T02:01:17.170Z,99.90
2018-11-10T02:01:49.780Z,99.90
2018-11-10T02:02:22.379Z,99.90
2018-11-10T02:02:54.964Z,99.90
2018-11-10T02:03:27.569Z,99.90
2018-11-10T02:04:00.200Z,99.90
2018-11-10T02:04:32.826Z,99.90
2018-11-10T02:05:05.735Z,99.90
2018-11-10T02:05:38.302Z,99.90
2018-11-10T02:06:10.972Z,99.90
2018-11-10T02:06:43.693Z,99.90
2018-11-10T02:07:16.211Z,99.90
2018-11-10T02:07:48.818Z,99.90
2018-11-10T02:08:21.406Z,99.90
2018-11-10T02:08:53.986Z,99.90
2018-11-10T02:09:26.563Z,99.90
2018-11-10T02:09:59.155Z,99.80
2018-11-10T02:10:31.756Z,99.70
2018-11-10T02:11:04.482Z,99.80
2018-11-10T02:11:37.136Z,99.80
2018-11-10T02:12:09.828Z,99.80
2018-11-10T02:12:42.527Z,99.90
2018-11-10T02:13:15.132Z,99.90
2018-11-10T02:13:47.723Z,99.90
2018-11-10T02:14:20.319Z,99.90
2018-11-10T02:14:52.935Z,99.90
2018-11-10T02:15:25.557Z,99.90
2018-11-10T02:15:58.219Z,99.90
2018-11-10T02:16:30.798Z,99.90
2018-11-10T02:17:03.463Z,99.90
2018-11-10T02:17:36.035Z,99.90
2018-11-10T02:18:08.665Z,99.90
2018-11-10T02:18:41.253Z,99.90
2018-11-10T02:19:13.863Z,99.90
2018-11-10T02:19:46.500Z,99.80
2018-11-10T02:20:19.131Z,99.70
2018-11-10T02:20:51.746Z,99.60
2018-11-10T02:21:24.350Z,99.70
2018-11-10T02:21:57.031Z,99.60
2018-11-10T02:22:29.694Z,99.60
2018-11-10T02:23:02.369Z,99.60
2018-11-10T02:23:35.008Z,99.70
2018-11-10T02:24:07.638Z,99.70
2018-11-10T02:24:40.251Z,99.80
2018-11-10T02:25:13.118Z,99.80
2018-11-10T02:25:45.809Z,99.70
2018-11-10T02:26:18.475Z,99.70
2018-11-10T02:26:51.156Z,99.50
2018-11-10T02:27:24.283Z,99.40
2018-11-10T02:27:56.907Z,99.10
2018-11-10T02:28:29.563Z,99.00
2018-11-10T02:29:02.265Z,98.90
2018-11-10T02:29:34.939Z,98.90
2018-11-10T02:30:09.019Z,99.10
2018-11-10T02:30:41.711Z,99.30
2018-11-10T02:31:14.353Z,99.00
2018-11-10T02:31:46.937Z,99.00
2018-11-10T02:32:19.984Z,99.10
2018-11-10T02:32:52.571Z,99.20
2018-11-10T02:33:25.159Z,99.20
2018-11-10T02:33:57.755Z,99.20
2018-11-10T02:34:30.343Z,99.30
2018-11-10T02:35:02.991Z,99.30
2018-11-10T02:35:35.695Z,99.30
2018-11-10T02:36:08.319Z,99.30
2018-11-10T02:36:40.923Z,98.90
2018-11-10T02:37:13.540Z,98.90
2018-11-10T02:37:46.183Z,98.70
2018-11-10T02:38:18.772Z,98.60
2018-11-10T02:38:51.515Z,98.60
2018-11-10T02:39:24.012Z,98.60
2018-11-10T02:39:56.639Z,98.50
2018-11-10T02:40:29.275Z,98.70
2018-11-10T02:41:01.887Z,98.80
2018-11-10T02:41:34.580Z,98.80
2018-11-10T02:42:07.206Z,98.90
2018-11-10T02:42:39.786Z,99.00
2018-11-10T02:43:12.391Z,99.00
2018-11-10T02:43:45.003Z,99.00
2018-11-10T02:44:17.610Z,99.00
2018-11-10T02:44:50.238Z,99.10
2018-11-10T02:45:22.874Z,99.10
2018-11-10T02:45:55.484Z,99.20
2018-11-10T02:46:28.100Z,99.30
2018-11-10T02:47:00.700Z,99.40
2018-11-10T02:47:33.315Z,99.40
2018-11-10T02:48:05.919Z,99.30
2018-11-10T02:48:38.530Z,99.00
2018-11-10T02:49:11.111Z,99.00
2018-11-10T02:49:43.730Z,99.00
2018-11-10T02:50:16.364Z,99.00
2018-11-10T02:50:48.959Z,99.10
2018-11-10T02:51:21.570Z,99.10
2018-11-10T02:51:54.211Z,99.20
2018-11-10T02:52:26.826Z,99.20
2018-11-10T02:52:59.422Z,99.40
2018-11-10T02:53:32.014Z,99.20
2018-11-10T02:54:04.899Z,99.10
2018-11-10T02:54:37.567Z,99.00
2018-11-10T02:55:10.785Z,99.10
2018-11-10T02:55:43.376Z,99.10
2018-11-10T02:56:16.000Z,99.00
2018-11-10T02:56:48.590Z,98.70
2018-11-10T02:57:21.222Z,98.80
2018-11-10T02:57:53.831Z,98.90
2018-11-10T02:58:26.455Z,99.00
2018-11-10T02:58:59.072Z,99.10
2018-11-10T02:59:31.675Z,99.30
2018-11-10T03:00:04.616Z,99.00
2018-11-10T03:00:37.193Z,98.60
2018-11-10T03:01:09.804Z,98.50
2018-11-10T03:01:42.472Z,98.50
2018-11-10T03:02:15.092Z,98.60
2018-11-10T03:02:47.682Z,98.50
2018-11-10T03:03:20.272Z,98.50
2018-11-10T03:03:52.881Z,98.60
2018-11-10T03:04:25.513Z,98.70
2018-11-10T03:04:58.138Z,98.70
2018-11-10T03:05:30.756Z,98.70
2018-11-10T03:06:03.450Z,98.90
2018-11-10T03:06:36.059Z,98.80
2018-11-10T03:07:08.671Z,98.80
2018-11-10T03:07:41.263Z,98.80
2018-11-10T03:08:13.862Z,98.80
2018-11-10T03:08:46.464Z,98.90
2018-11-10T03:09:19.093Z,98.90
2018-11-10T03:09:51.690Z,98.90
2018-11-10T03:10:24.283Z,99.00
2018-11-10T03:10:56.970Z,98.80
2018-11-10T03:11:29.558Z,98.60
2018-11-10T03:12:02.139Z,98.60
2018-11-10T03:12:34.755Z,98.70
2018-11-10T03:13:07.827Z,98.50
2018-11-10T03:13:40.427Z,98.80
2018-11-10T03:14:13.069Z,98.60
2018-11-10T03:14:45.716Z,98.50
2018-11-10T03:15:18.314Z,98.50
2018-11-10T03:15:50.938Z,98.50
2018-11-10T03:16:23.636Z,98.60
2018-11-10T03:16:56.168Z,98.70
2018-11-10T03:17:28.766Z,98.80
2018-11-10T03:18:01.388Z,98.70
2018-11-10T03:18:34.020Z,98.50
2018-11-10T03:19:06.595Z,98.10
2018-11-10T03:19:39.194Z,98.00
2018-11-10T03:20:13.388Z,98.00
2018-11-10T03:20:46.008Z,98.00
2018-11-10T03:21:18.615Z,98.10
2018-11-10T03:21:51.196Z,98.20
2018-11-10T03:22:23.832Z,98.30
2018-11-10T03:22:56.477Z,98.40
2018-11-10T03:23:29.063Z,98.50
2018-11-10T03:24:01.676Z,98.60
2018-11-10T03:24:34.263Z,98.60
2018-11-10T03:25:06.843Z,98.70
2018-11-10T03:25:39.427Z,98.90
2018-11-10T03:26:12.055Z,98.90
2018-11-10T03:26:44.708Z,98.90
2018-11-10T03:27:17.290Z,99.00
2018-11-10T03:27:49.902Z,98.80
2018-11-10T03:28:22.484Z,98.70
2018-11-10T03:28:55.071Z,98.70
2018-11-10T03:29:27.666Z,98.40
2018-11-10T03:30:00.268Z,98.30
2018-11-10T03:30:32.895Z,98.30
2018-11-10T03:31:06.091Z,98.30
2018-11-10T03:31:38.663Z,98.40
2018-11-10T03:32:11.275Z,98.50
2018-11-10T03:32:43.901Z,98.60
2018-11-10T03:33:16.487Z,98.60
2018-11-10T03:33:49.079Z,98.50
2018-11-10T03:34:21.670Z,98.50
2018-11-10T03:34:54.250Z,98.60
2018-11-10T03:35:26.846Z,98.70
2018-11-10T03:35:59.531Z,98.80
2018-11-10T03:36:32.157Z,98.90
2018-11-10T03:37:04.907Z,98.80
2018-11-10T03:37:37.600Z,98.80
2018-11-10T03:38:10.232Z,98.90
2018-11-10T03:38:42.865Z,98.90
2018-11-10T03:39:15.591Z,99.00
2018-11-10T03:39:48.229Z,98.90
2018-11-10T03:40:20.830Z,98.60
2018-11-10T03:40:53.547Z,98.40
2018-11-10T03:41:26.179Z,98.30
2018-11-10T03:41:58.759Z,98.30
2018-11-10T03:42:31.322Z,98.10
2018-11-10T03:43:03.955Z,98.00
2018-11-10T03:43:36.675Z,98.30
2018-11-10T03:44:09.646Z,98.10
2018-11-10T03:44:42.234Z,98.10
2018-11-10T03:45:14.864Z,98.20
2018-11-10T03:45:47.491Z,98.30
2018-11-10T03:46:20.090Z,98.30
2018-11-10T03:46:52.699Z,98.40
2018-11-10T03:47:25.329Z,98.40
2018-11-10T03:47:57.915Z,98.50
2018-11-10T03:48:30.617Z,98.60
2018-11-10T03:49:03.252Z,98.40
2018-11-10T03:49:35.872Z,98.40
2018-11-10T03:50:09.456Z,98.30
2018-11-10T03:50:42.112Z,98.20
2018-11-10T03:51:14.682Z,98.30
2018-11-10T03:51:47.309Z,98.30
2018-11-10T03:52:19.907Z,98.40
2018-11-10T03:52:52.486Z,98.40
2018-11-10T03:53:25.104Z,98.50
2018-11-10T03:53:57.737Z,98.60
2018-11-10T03:54:30.343Z,98.60
2018-11-10T03:55:02.974Z,98.50
2018-11-10T03:55:35.604Z,98.20
2018-11-10T03:56:08.239Z,98.00
2018-11-10T03:56:40.815Z,97.90
2018-11-10T03:57:13.411Z,97.80
2018-11-10T03:57:46.080Z,97.60
2018-11-10T03:58:18.710Z,97.50
2018-11-10T03:58:51.322Z,97.30
2018-11-10T03:59:23.961Z,97.30
2018-11-10T03:59:56.543Z,97.10
2018-11-10T04:00:29.163Z,97.20
2018-11-10T04:01:01.787Z,97.30
2018-11-10T04:01:34.371Z,97.30
2018-11-10T04:02:07.004Z,97.50
2018-11-10T04:02:40.347Z,97.60
2018-11-10T04:03:12.931Z,97.70
2018-11-10T04:03:45.506Z,97.80
2018-11-10T04:04:18.178Z,97.90
2018-11-10T04:04:50.823Z,98.10
2018-11-10T04:05:23.448Z,98.10
2018-11-10T04:05:56.073Z,98.30
2018-11-10T04:06:28.675Z,98.40
2018-11-10T04:07:01.345Z,98.30
2018-11-10T04:07:33.955Z,98.30
2018-11-10T04:08:06.572Z,98.30
2018-11-10T04:08:39.191Z,98.20
2018-11-10T04:09:11.800Z,98.10
2018-11-10T04:09:44.440Z,98.20
2018-11-10T04:10:17.059Z,98.30
2018-11-10T04:10:49.671Z,98.50
2018-11-10T04:11:22.268Z,98.50
2018-11-10T04:11:54.847Z,98.50
2018-11-10T04:12:27.488Z,98.40
2018-11-10T04:13:00.106Z,98.40
2018-11-10T04:13:32.678Z,98.50
2018-11-10T04:14:05.473Z,98.40
2018-11-10T04:14:38.088Z,98.20
2018-11-10T04:15:10.682Z,98.20
2018-11-10T04:15:43.341Z,98.20
2018-11-10T04:16:16.195Z,98.10
2018-11-10T04:16:48.806Z,98.10
2018-11-10T04:17:21.368Z,98.10
2018-11-10T04:17:54.000Z,98.20
2018-11-10T04:18:26.633Z,98.30
2018-11-10T04:18:59.230Z,98.30
2018-11-10T04:19:31.849Z,98.40
2018-11-10T04:20:05.743Z,98.40
2018-11-10T04:20:38.332Z,98.50
2018-11-10T04:21:10.971Z,98.60
2018-11-10T04:21:43.595Z,98.60
2018-11-10T04:22:20.718Z,98.60
2018-11-10T04:22:53.296Z,98.70
2018-11-10T04:23:25.871Z,98.70
2018-11-10T04:23:58.512Z,98.80
2018-11-10T04:24:31.100Z,98.80
2018-11-10T04:25:05.316Z,98.90
2018-11-10T04:25:37.907Z,98.90
2018-11-10T04:26:10.514Z,98.90
2018-11-10T04:26:43.173Z,98.90
2018-11-10T04:27:15.797Z,98.90
2018-11-10T04:27:48.404Z,98.90
2018-11-10T04:28:20.985Z,99.00
2018-11-10T04:28:53.555Z,99.00
2018-11-10T04:29:26.179Z,98.80
2018-11-10T04:29:58.751Z,98.60
2018-11-10T04:30:31.336Z,98.50
2018-11-10T04:31:04.213Z,98.50
2018-11-10T04:31:36.869Z,98.40
2018-11-10T04:32:09.508Z,98.50
2018-11-10T04:32:42.082Z,98.50
2018-11-10T04:33:14.667Z,98.60
2018-11-10T04:33:47.271Z,98.70
2018-11-10T04:34:19.870Z,98.70
2018-11-10T04:34:52.506Z,98.70
2018-11-10T04:35:25.107Z,98.70
2018-11-10T04:35:57.735Z,98.80
2018-11-10T04:36:30.431Z,98.90
2018-11-10T04:37:03.034Z,99.10
2018-11-10T04:37:35.938Z,99.00
2018-11-10T04:38:08.550Z,99.10
2018-11-10T04:38:41.170Z,98.80
2018-11-10T04:39:13.796Z,98.90
2018-11-10T04:39:46.463Z,98.80
2018-11-10T04:40:19.062Z,98.80
2018-11-10T04:40:51.670Z,98.90
2018-11-10T04:41:24.293Z,98.90
2018-11-10T04:41:56.928Z,98.80
2018-11-10T04:42:29.514Z,98.70
2018-11-10T04:43:02.163Z,98.80
2018-11-10T04:43:34.778Z,98.70
2018-11-10T04:44:07.402Z,98.70
2018-11-10T04:44:40.004Z,98.70
2018-11-10T04:45:12.608Z,98.70
2018-11-10T04:45:45.235Z,98.70
2018-11-10T04:46:17.912Z,98.70
2018-11-10T04:46:50.533Z,98.40
2018-11-10T04:47:23.184Z,98.40
2018-11-10T04:47:55.816Z,98.40
2018-11-10T04:48:28.434Z,98.40
2018-11-10T04:49:01.010Z,98.40
2018-11-10T04:49:33.667Z,98.50
2018-11-10T04:50:07.706Z,98.60
2018-11-10T04:50:40.349Z,98.60
2018-11-10T04:51:12.965Z,98.70
2018-11-10T04:51:45.547Z,98.70
2018-11-10T04:52:18.185Z,98.80
2018-11-10T04:52:50.797Z,98.80
2018-11-10T04:53:23.394Z,98.80
2018-11-10T04:53:56.041Z,98.70
2018-11-10T04:54:28.664Z,98.50
2018-11-10T04:55:01.271Z,98.20
2018-11-10T04:55:33.876Z,98.00
2018-11-10T04:56:06.475Z,97.90
2018-11-10T04:56:39.095Z,97.40
2018-11-10T04:57:11.738Z,97.10
2018-11-10T04:57:44.346Z,97.00
2018-11-10T04:58:16.938Z,97.10
2018-11-10T04:58:49.578Z,97.30
2018-11-10T04:59:22.204Z,97.20
2018-11-10T04:59:54.787Z,97.10
2018-11-10T05:00:27.386Z,97.20
2018-11-10T05:01:00.023Z,97.20
2018-11-10T05:01:32.611Z,97.30
2018-11-10T05:02:05.299Z,97.20
2018-11-10T05:02:37.908Z,97.40
2018-11-10T05:03:10.529Z,97.60
2018-11-10T05:03:43.124Z,97.80
2018-11-10T05:04:15.757Z,97.80
2018-11-10T05:04:48.391Z,97.90
2018-11-10T05:05:21.006Z,98.00
2018-11-10T05:05:53.644Z,97.90
2018-11-10T05:06:26.222Z,97.90
2018-11-10T05:06:58.837Z,97.90
2018-11-10T05:07:31.418Z,97.90
2018-11-10T05:08:04.144Z,97.90
2018-11-10T05:08:36.757Z,97.90
2018-11-10T05:09:10.260Z,97.90
2018-11-10T05:09:42.843Z,97.90
2018-11-10T05:10:15.483Z,98.00
2018-11-10T05:10:48.087Z,98.00
2018-11-10T05:11:20.677Z,98.00
2018-11-10T05:11:53.361Z,98.10
2018-11-10T05:12:25.982Z,98.10
2018-11-10T05:12:58.624Z,98.30
2018-11-10T05:13:31.244Z,98.30
2018-11-10T05:14:03.974Z,98.40
2018-11-10T05:14:36.592Z,98.40
2018-11-10T05:15:10.648Z,98.50
2018-11-10T05:15:43.269Z,98.50
2018-11-10T05:16:15.838Z,98.50
2018-11-10T05:16:48.449Z,98.50
2018-11-10T05:17:21.075Z,98.50
2018-11-10T05:17:53.694Z,98.60
2018-11-10T05:18:26.263Z,98.60
2018-11-10T05:18:58.858Z,98.80
2018-11-10T05:19:31.422Z,98.80
2018-11-10T05:20:04.417Z,98.90
2018-11-10T05:20:37.044Z,98.90
2018-11-10T05:21:09.694Z,98.90
2018-11-10T05:21:42.310Z,98.90
2018-11-10T05:22:14.963Z,99.00
2018-11-10T05:22:47.559Z,99.00
2018-11-10T05:23:20.184Z,99.00
2018-11-10T05:23:52.883Z,99.10
2018-11-10T05:24:25.511Z,99.20
2018-11-10T05:24:58.144Z,99.20
2018-11-10T05:25:30.742Z,99.20
2018-11-10T05:26:03.314Z,99.10
2018-11-10T05:26:35.920Z,99.10
2018-11-10T05:27:08.568Z,99.10
2018-11-10T05:27:41.178Z,99.30
2018-11-10T05:28:13.808Z,99.10
2018-11-10T05:28:46.398Z,98.90
2018-11-10T05:29:19.040Z,98.80
2018-11-10T05:29:51.634Z,98.70
2018-11-10T05:30:24.212Z,98.70
2018-11-10T05:30:56.842Z,98.80
2018-11-10T05:31:29.411Z,98.70
2018-11-10T05:32:02.072Z,98.70
2018-11-10T05:32:34.671Z,98.90
2018-11-10T05:33:07.296Z,98.60
2018-11-10T05:33:39.883Z,98.50
2018-11-10T05:34:13.188Z,98.50
2018-11-10T05:34:45.807Z,98.40
2018-11-10T05:35:18.434Z,98.40
2018-11-10T05:35:51.074Z,98.40
2018-11-10T05:36:23.689Z,98.50
2018-11-10T05:36:56.426Z,98.40
2018-11-10T05:37:29.070Z,98.50
2018-11-10T05:38:01.711Z,98.50
2018-11-10T05:38:34.295Z,98.50
2018-11-10T05:39:07.995Z,98.60
2018-11-10T05:39:40.623Z,98.70
2018-11-10T05:40:13.210Z,98.70
2018-11-10T05:40:45.806Z,98.40
2018-11-10T05:41:18.397Z,98.20
2018-11-10T05:41:51.024Z,98.00
2018-11-10T05:42:23.610Z,98.00
2018-11-10T05:42:56.249Z,98.10
2018-11-10T05:43:28.865Z,98.00
2018-11-10T05:44:01.512Z,97.80
2018-11-10T05:44:34.131Z,97.80
2018-11-10T05:45:06.849Z,97.80
2018-11-10T05:45:39.485Z,98.00
2018-11-10T05:46:12.086Z,98.00
2018-11-10T05:46:44.677Z,97.80
2018-11-10T05:47:17.289Z,97.80
2018-11-10T05:47:49.895Z,97.80
2018-11-10T05:48:22.565Z,97.90
2018-11-10T05:48:55.151Z,97.90
2018-11-10T05:49:27.748Z,97.70
2018-11-10T05:50:00.402Z,97.80
2018-11-10T05:50:33.049Z,97.50
2018-11-10T05:51:05.694Z,97.50
2018-11-10T05:51:38.275Z,97.60
2018-11-10T05:52:10.876Z,97.80
2018-11-10T05:52:43.486Z,97.80
2018-11-10T05:53:16.110Z,97.70
2018-11-10T05:53:48.763Z,97.70
2018-11-10T05:54:21.339Z,97.70
2018-11-10T05:54:53.927Z,97.80
2018-11-10T05:55:26.552Z,97.60
2018-11-10T05:55:59.143Z,97.60
2018-11-10T05:56:31.766Z,97.60
2018-11-10T05:57:04.527Z,97.70
2018-11-10T05:57:37.450Z,97.70
2018-11-10T05:58:10.060Z,97.80
2018-11-10T05:58:42.636Z,97.90
2018-11-10T05:59:15.271Z,98.00
2018-11-10T05:59:47.890Z,98.00
2018-11-10T06:00:20.500Z,98.10
2018-11-10T06:00:53.106Z,98.20
2018-11-10T06:01:25.731Z,98.30
2018-11-10T06:01:58.386Z,98.40
2018-11-10T06:02:30.995Z,98.50
2018-11-10T06:03:03.630Z,98.60
2018-11-10T06:03:36.639Z,98.70
2018-11-10T06:04:09.235Z,98.80
2018-11-10T06:04:41.854Z,98.90
2018-11-10T06:05:14.471Z,99.00
2018-11-10T06:05:47.098Z,99.00
2018-11-10T06:06:19.710Z,99.10
2018-11-10T06:06:52.324Z,99.20
2018-11-10T06:07:24.911Z,99.30
2018-11-10T06:07:57.510Z,99.30
2018-11-10T06:08:30.167Z,99.60
2018-11-10T06:09:03.112Z,99.40
2018-11-10T06:09:35.675Z,99.20
2018-11-10T06:10:09.693Z,99.10
2018-11-10T06:10:42.197Z,99.00
2018-11-10T06:11:14.852Z,99.10
2018-11-10T06:11:47.454Z,99.10
2018-11-10T06:12:20.082Z,99.10
2018-11-10T06:12:52.701Z,99.20
2018-11-10T06:13:25.298Z,98.90
2018-11-10T06:13:57.879Z,98.90
2018-11-10T06:14:30.499Z,98.70
2018-11-10T06:15:03.289Z,98.70
2018-11-10T06:15:35.968Z,98.50
2018-11-10T06:16:08.567Z,98.50
2018-11-10T06:16:41.138Z,98.60
2018-11-10T06:17:13.756Z,98.60
2018-11-10T06:17:46.335Z,98.60
2018-11-10T06:18:18.947Z,98.70
2018-11-10T06:18:51.593Z,98.70
2018-11-10T06:19:24.228Z,98.70
2018-11-10T06:19:56.862Z,98.80
2018-11-10T06:20:29.448Z,98.90
2018-11-10T06:21:02.071Z,99.00
2018-11-10T06:21:34.668Z,99.00
2018-11-10T06:22:07.266Z,99.10
2018-11-10T06:22:39.943Z,99.10
2018-11-10T06:23:12.568Z,99.20
2018-11-10T06:23:45.186Z,98.90
2018-11-10T06:24:17.813Z,98.70
2018-11-10T06:24:50.423Z,98.40
2018-11-10T06:25:23.024Z,98.60
2018-11-10T06:25:55.663Z,98.40
2018-11-10T06:26:28.726Z,98.20
2018-11-10T06:27:01.332Z,98.20
2018-11-10T06:27:33.934Z,98.30
2018-11-10T06:28:06.585Z,98.30
2018-11-10T06:28:39.225Z,98.20
2018-11-10T06:29:11.852Z,98.10
2018-11-10T06:29:44.475Z,98.10
2018-11-10T06:30:17.095Z,98.20
2018-11-10T06:30:49.704Z,98.20
2018-11-10T06:31:22.295Z,98.30
2018-11-10T06:31:54.930Z,98.20
2018-11-10T06:32:27.553Z,98.20
2018-11-10T06:33:00.232Z,98.30
2018-11-10T06:33:32.850Z,98.30
2018-11-10T06:34:05.496Z,98.30
2018-11-10T06:34:38.218Z,98.30
2018-11-10T06:35:11.277Z,98.40
2018-11-10T06:35:43.895Z,98.40
2018-11-10T06:36:16.530Z,98.30
2018-11-10T06:36:49.123Z,98.30
2018-11-10T06:37:21.859Z,98.50
2018-11-10T06:37:54.454Z,98.50
2018-11-10T06:38:27.101Z,98.50
2018-11-10T06:38:59.696Z,98.60
2018-11-10T06:39:32.327Z,98.50
2018-11-10T06:40:06.985Z,98.50
2018-11-10T06:40:39.601Z,98.80
2018-11-10T06:41:12.227Z,98.70
2018-11-10T06:41:44.843Z,98.50
2018-11-10T06:42:17.455Z,98.40
2018-11-10T06:42:50.064Z,98.20
2018-11-10T06:43:22.646Z,98.40
2018-11-10T06:43:55.238Z,98.00
2018-11-10T06:44:27.845Z,97.90
2018-11-10T06:45:00.438Z,97.90
2018-11-10T06:45:33.027Z,97.90
2018-11-10T06:46:05.656Z,98.00
2018-11-10T06:46:39.035Z,98.00
2018-11-10T06:47:11.718Z,98.20
2018-11-10T06:47:44.215Z,98.20
2018-11-10T06:48:16.819Z,98.40
2018-11-10T06:48:49.399Z,98.50
2018-11-10T06:49:22.011Z,98.50
2018-11-10T06:49:54.622Z,98.60
2018-11-10T06:50:27.202Z,98.70
2018-11-10T06:50:59.783Z,98.80
2018-11-10T06:51:32.402Z,99.00
2018-11-10T06:52:05.094Z,99.00
2018-11-10T06:52:37.751Z,99.10
2018-11-10T06:53:10.360Z,99.10
2018-11-10T06:53:43.034Z,99.00
2018-11-10T06:54:15.599Z,99.00
2018-11-10T06:54:48.162Z,98.90
2018-11-10T06:55:20.776Z,98.80
2018-11-10T06:55:53.388Z,98.80
2018-11-10T06:56:25.982Z,98.90
2018-11-10T06:56:58.579Z,98.90
2018-11-10T06:57:31.150Z,99.00
2018-11-10T06:58:04.116Z,99.10
2018-11-10T06:58:36.706Z,99.10
2018-11-10T06:59:09.317Z,99.30
2018-11-10T06:59:41.921Z,99.10
2018-11-10T07:00:15.305Z,99.00
2018-11-10T07:00:47.879Z,99.00